Damwald, Netherlands
Current Conditions -  °F | °C
As of 3:55 AM on Monday 24 Nov 2014 (Local Time) from EHLW Reporting Station
Overcast Overcast  
Wind Chill: 43°   Ceiling: 7200
Heat Index: 46°   Visibility: 6mi
Dew Point: 45°   Wind: 7mph
Humidity: 93%   Direction: 280°W
Pressure: 30.03"   Gusts: NA
Location:  53.29°N, 6°E
Report Text: EHLW 240255Z AUTO 28006KT 9999 FEW050 OVC072 08/07 Q1017 BLU
Loading
Personal Weather Stations






























Interactive Weather Map New forecast layout! Learn more

10-Day Weather Forecast

Advertisements
Track Severe Weather on mobile